Terminal Aerodrome Forecast
Issued by NWS Amarillo, TX

Home | Current Version | Previous Version | Text Only | Print | Product List | Glossary On
Versions: 1 2 3 4 5 6 7 8 9 10 11 12 13 14 15 16 17 18 19 20 21
355
FTUS44 KAMA 231140
TAFDHT
TAF
KDHT 231140Z 2312/2412 18006KT P6SM BKN070
     FM231600 18016KT P6SM SCT070 BKN110 PROB30 2321/2403 -TSRA
      BKN040CB OVC060CB
     FM240300 19010KT P6SM BKN250=

USA.gov is the U.S. government's official web portal to all federal, state and local government web resources and services.